Surface/Precipitation History
09/24/2017 03:37  to  9/25/2017 03:37
Change End Date:
Date/Time
(MDT)
Sf
Temp Chem Water Layer Surface Precipitation
Sfc Pvt Sub Frz Factor Pct Dpth DpthThk IcePct Cond Salin FI Type Intens Accum Rate
09/25/2017 03:25 Chemically Wet 23.7F - 48F 3F 50 50% 0.00 in - 0% 498 mhos 15000 - None None - -
09/25/2017 03:19 Chemically Wet 23.9F - 48F 3F 50 50% 0.00 in - 0% 498 mhos 15000 - None None - -
09/25/2017 03:10 Chemically Wet 24.1F - 48F 3F 50 50% 0.00 in - 0% 498 mhos 15000 - None None - -
09/25/2017 03:09 Chemically Wet 24.3F - 48F 3F 50 50% 0.00 in - 0% 498 mhos 15000 - None None - -
09/25/2017 02:59 Chemically Wet 24.4F - 49F 3F 45 50% 0.00 in - 0% 459 mhos 15000 - None None - -
09/25/2017 02:55 Chemically Wet 24.6F - 49F 3F 45 50% 0.00 in - 0% 459 mhos 15000 - None None - -
09/25/2017 02:49 Chemically Wet 24.6F - 49F 3F 45 50% 0.00 in - 0% 459 mhos 15000 - None None - -
09/25/2017 02:40 Chemically Wet 24.8F - 49F 3F 45 50% 0.00 in - 0% 459 mhos 15000 - None None - -
09/25/2017 02:39 Chemically Wet 24.8F - 49F 3F 45 50% 0.00 in - 0% 459 mhos 15000 - None None - -
09/25/2017 02:29 Chemically Wet 25.2F - 49F 3F 45 50% 0.00 in - 0% 426 mhos 15000 - None None - -
09/25/2017 02:25 Chemically Wet 25.2F - 49F 3F 45 50% 0.00 in - 0% 426 mhos 15000 - None None - -
09/25/2017 02:18 Chemically Wet 25.3F - 49F 3F 45 50% 0.00 in - 0% 426 mhos 15000 - None None - -
09/25/2017 02:10 Chemically Wet 25.5F - 49F 3F 45 50% 0.00 in - 0% 426 mhos 15000 - None None - -
09/25/2017 02:08 Chemically Wet 25.3F - 49F 3F 45 50% 0.00 in - 0% 426 mhos 15000 - None None - -
09/25/2017 01:58 Chemically Wet 25.9F - 49F 3F 45 50% 0.00 in - 0% 397 mhos 15000 - None None - -
Date/Time
(MDT)
Sf
Temp Chem Water Layer Surface Precipitation
Sfc Pvt Sub Frz Factor Pct Dpth DpthThk IcePct Cond Salin FI Type Intens Accum Rate
09/25/2017 01:55 Chemically Wet 26.1F - 49F 3F 45 50% 0.00 in - 0% 397 mhos 15000 - None None - -
09/25/2017 01:48 Chemically Wet 26.1F - 49F 3F 45 50% 0.00 in - 0% 372 mhos 15000 - None None - -
09/25/2017 01:40 Chemically Wet 26.4F - 49F 3F 40 50% 0.00 in - 0% 372 mhos 15000 - None None - -
09/25/2017 01:38 Chemically Wet 26.6F - 49F 3F 40 50% 0.00 in - 0% 372 mhos 15000 - None None - -
09/25/2017 01:28 Chemically Wet 26.8F - 49F 3F 40 50% 0.00 in - 0% 350 mhos 15000 - None None - -
09/25/2017 01:25 Chemically Wet 26.8F - 49F 3F 40 50% 0.00 in - 0% 350 mhos 15000 - None None - -
09/25/2017 01:18 Chemically Wet 27.0F - 49F 3F 40 50% 0.00 in - 0% 331 mhos 15000 - None None - -
09/25/2017 01:10 Chemically Wet 27.3F - 49F 3F 40 50% 0.00 in - 0% 313 mhos 15000 - None None - -
09/25/2017 01:08 Chemically Wet 27.3F - 49F 3F 40 50% 0.00 in - 0% 314 mhos 15000 - None None - -
09/25/2017 00:58 Chemically Wet 27.7F - 49F 3F 40 50% 0.00 in - 0% 298 mhos 15000 - None None - -
09/25/2017 00:55 Chemically Wet 27.9F - 49F 3F 35 50% 0.00 in - 0% 283 mhos 15000 - None None - -
09/25/2017 00:48 Chemically Wet 27.9F - 49F 3F 35 50% 0.00 in - 0% 283 mhos 15000 - None None - -
09/25/2017 00:40 Chemically Wet 28.0F - 49F 3F 35 50% 0.00 in - 0% 259 mhos 15000 - None None - -
09/25/2017 00:38 Chemically Wet 28.2F - 49F 3F 35 50% 0.00 in - 0% 259 mhos 15000 - None None - -
09/25/2017 00:28 Chemically Wet 28.4F - 49F 3F 35 50% 0.00 in - 0% 238 mhos 15000 - None None - -
Date/Time
(MDT)
Sf
Temp Chem Water Layer Surface Precipitation
Sfc Pvt Sub Frz Factor Pct Dpth DpthThk IcePct Cond Salin FI Type Intens Accum Rate
09/25/2017 00:25 Chemically Wet 28.4F - 49F 3F 30 50% 0.00 in - 0% 238 mhos 15000 - None None - -
09/25/2017 00:18 Chemically Wet 28.6F - 49F 3F 30 50% 0.00 in - 0% 220 mhos 15000 - None None - -
09/25/2017 00:10 Chemically Wet 28.9F - 49F 3F 30 50% 0.00 in - 0% 220 mhos 15000 - None None - -
09/25/2017 00:08 Chemically Wet 28.9F - 49F 3F 30 50% 0.00 in - 0% 212 mhos 15000 - None None - -
09/24/2017 23:58 Chemically Wet 29.1F - 49F 3F 30 50% 0.00 in - 0% 205 mhos 15000 - None None - -
09/24/2017 23:55 Chemically Wet 29.3F - 49F 3F 30 50% 0.00 in - 0% 205 mhos 15000 - None None - -
09/24/2017 23:48 Chemically Wet 29.7F - 49F 3F 30 50% 0.00 in - 0% 198 mhos 15000 - None None - -
09/24/2017 23:40 Chemically Wet 30.0F - 49F 3F 30 50% 0.00 in - 0% 192 mhos 15000 - None None - -
09/24/2017 23:37 Chemically Wet 30.0F - 49F 3F 30 50% 0.00 in - 0% 192 mhos 15000 - None None - -
09/24/2017 23:27 Chemically Wet 30.4F - 49F 3F 30 50% 0.00 in - 0% 180 mhos 15000 - None None - -
09/24/2017 23:25 Chemically Wet 30.6F - 49F 3F 30 50% 0.00 in - 0% 180 mhos 15000 - None None - -
09/24/2017 23:17 Chemically Wet 30.7F - 49F 3F 30 50% 0.00 in - 0% 170 mhos 15000 - None None - -
09/24/2017 23:10 Chemically Wet 30.9F - 49F 3F 30 50% 0.00 in - 0% 165 mhos 15000 - None None - -
09/24/2017 23:07 Chemically Wet 31.1F - 49F 3F 30 50% 0.00 in - 0% 160 mhos 15000 - None None - -
09/24/2017 22:57 Chemically Wet 31.1F - 49F 3F 25 50% 0.00 in - 0% 152 mhos 15000 - None None - -
Date/Time
(MDT)
Sf
Temp Chem Water Layer Surface Precipitation
Sfc Pvt Sub Frz Factor Pct Dpth DpthThk IcePct Cond Salin FI Type Intens Accum Rate
09/24/2017 22:55 Chemically Wet 31.3F - 49F 3F 25 50% 0.00 in - 0% 148 mhos 15000 - None None - -
09/24/2017 22:47 Chemically Wet 31.3F - 50F 3F 25 50% 0.00 in - 0% 141 mhos 15000 - None None - -
09/24/2017 22:40 Chemically Wet 31.5F - 49F 3F 25 50% 0.00 in - 0% 135 mhos 15000 - None None - -
09/24/2017 22:37 Chemically Wet 31.5F - 50F 3F 25 50% 0.00 in - 0% 135 mhos 15000 - None None - -
09/24/2017 22:27 Chemically Wet 31.8F - 49F 3F 20 50% 0.00 in - 0% 126 mhos 15000 - None None - -
09/24/2017 22:25 Chemically Wet 31.8F - 49F 3F 20 50% 0.00 in - 0% 126 mhos 15000 - None None - -
09/24/2017 22:17 Chemically Wet 32.0F - 49F 3F 15 50% 0.00 in - 0% 121 mhos 15000 - None None - -
09/24/2017 22:10 Wet 32.2F - 49F 3F 15 50% 0.00 in - 0% 116 mhos 15000 - None None - -
09/24/2017 22:07 Wet 32.4F - 49F 3F 15 50% 0.00 in - 0% 116 mhos 15000 - None None - -
09/24/2017 21:57 Wet 32.5F - 49F 3F 10 50% 0.00 in - 0% 110 mhos 15000 - None None - -
09/24/2017 21:55 Wet 32.7F - 49F 3F 10 50% 0.00 in - 0% 110 mhos 15000 - None None - -
09/24/2017 21:47 Wet 32.9F - 49F 3F 10 50% 0.00 in - 0% 106 mhos 15000 - None None - -
09/24/2017 21:40 Wet 32.9F - 49F 3F 10 50% 0.00 in - 0% 102 mhos 15000 - None None - -
09/24/2017 21:37 Wet 33.1F - 49F 3F 10 50% 0.00 in - 0% 101 mhos 15000 - None None - -
09/24/2017 21:27 Wet 33.4F - 49F 3F 10 50% 0.00 in - 0% 96 mhos 15000 - None None - -
Date/Time
(MDT)
Sf
Temp Chem Water Layer Surface Precipitation
Sfc Pvt Sub Frz Factor Pct Dpth DpthThk IcePct Cond Salin FI Type Intens Accum Rate
09/24/2017 21:25 Wet 33.6F - 49F 3F 10 50% 0.00 in - 0% 96 mhos 15000 - None None - -
09/24/2017 21:17 Wet 33.6F - 49F 3F 5 50% 0.00 in - 0% 93 mhos 15000 - None None - -
09/24/2017 21:10 Wet 34.2F - 49F 3F 5 50% 0.00 in - 0% 90 mhos 15000 - None None - -
09/24/2017 21:07 Wet 34.2F - 49F 3F 5 50% 0.00 in - 0% 88 mhos 15000 - None None - -
09/24/2017 20:57 Wet 34.5F - 49F 3F 5 50% 0.00 in - 0% 85 mhos 15000 - None None - -
09/24/2017 20:55 Wet 34.7F - 49F 3F 5 50% 0.00 in - 0% 83 mhos 15000 - None None - -
09/24/2017 20:46 Wet 34.9F - 49F 3F 5 50% 0.00 in - 0% 81 mhos 15000 - None None - -
09/24/2017 20:40 Wet 35.2F - 49F 7F 5 45% 0.00 in - 0% 78 mhos 13639 - None None - -
09/24/2017 20:36 Wet 35.4F - 49F 10F 5 42% 0.00 in - 0% 77 mhos 12712 - None None - -
09/24/2017 20:26 Wet 35.8F - 49F 15F 5 35% 0.00 in - 0% 72 mhos 10584 - None None - -
09/24/2017 20:25 Wet 36.0F - 49F 16F 5 34% 0.00 in - 0% 71 mhos 10265 - None None - -
09/24/2017 20:16 Wet 36.3F - 49F 18F 5 32% 0.00 in - 0% 69 mhos 9455 - None None - -
09/24/2017 20:10 Wet 36.7F - 49F 19F 5 30% 0.00 in - 0% 67 mhos 9005 - None None - -
09/24/2017 20:06 Wet 37.0F - 49F 19F 5 29% 0.00 in - 0% 67 mhos 8767 - None None - -
09/24/2017 19:56 Wet 37.6F - 49F 21F 5 26% 0.00 in - 0% 63 mhos 7914 - None None - -
Date/Time
(MDT)
Sf
Temp Chem Water Layer Surface Precipitation
Sfc Pvt Sub Frz Factor Pct Dpth DpthThk IcePct Cond Salin FI Type Intens Accum Rate
09/24/2017 19:55 Wet 37.6F - 49F 21F 5 26% 0.00 in - 0% 63 mhos 7914 - None None - -
09/24/2017 19:46 Wet 38.5F - 49F 22F 5 24% 0.00 in - 0% 60 mhos 7312 - None None - -
09/24/2017 19:40 Wet 38.8F - 49F 23F 5 23% 0.00 in - 0% 58 mhos 6840 - None None - -
09/24/2017 19:36 Wet 39.2F - 49F 24F 5 22% 0.00 in - 0% 56 mhos 6531 - None None - -
09/24/2017 19:26 Wet 39.9F - 49F 25F 5 19% 0.70 in - 0% 51 mhos 5682 - None None - -
09/24/2017 19:25 Wet 40.1F - 49F 25F 5 19% 0.70 in - 0% 51 mhos 5667 - None None - -
09/24/2017 19:16 Wet 41.0F - 49F 26F 5 17% 0.70 in - 0% 49 mhos 5230 - None None - -
09/24/2017 19:10 Wet 41.4F - 49F 26F 5 17% 0.70 in - 0% 47 mhos 4976 - None None - -
09/24/2017 19:06 Wet 41.9F - 49F 27F 5 16% 0.70 in - 0% 46 mhos 4745 - None None - -
09/24/2017 18:56 Wet 43.0F - 49F 27F 5 14% 0.70 in - 0% 42 mhos 4253 - None None - -
09/24/2017 18:55 Wet 42.8F - 49F 27F 5 14% 0.70 in - 0% 42 mhos 4259 - None None - -
09/24/2017 18:46 Wet 43.5F - 49F 28F 5 13% 0.70 in - 0% 39 mhos 3810 - None None - -
09/24/2017 18:40 Wet 44.2F - 49F 28F 5 12% 0.70 in - 0% 36 mhos 3499 - None None - -
09/24/2017 18:36 Wet 44.6F - 49F 29F 5 11% 0.70 in - 0% 35 mhos 3314 - None None - -
09/24/2017 18:26 Wet 46.0F - 48F 29F 5 9% 0.70 in - 0% 31 mhos 2821 - None None - -
Date/Time
(MDT)
Sf
Temp Chem Water Layer Surface Precipitation
Sfc Pvt Sub Frz Factor Pct Dpth DpthThk IcePct Cond Salin FI Type Intens Accum Rate
09/24/2017 18:25 Wet 46.2F - 48F 29F 5 9% 0.70 in - 0% 30 mhos 2799 - None None - -
09/24/2017 18:16 Wet 48.0F - 48F 30F 5 8% 0.70 in - 0% 27 mhos 2416 - None None - -
09/24/2017 18:10 Wet 50.0F - 48F 30F 5 8% 0.70 in - 0% 26 mhos 2250 - None None - -
09/24/2017 18:05 Wet 51.4F - 48F 30F 5 7% 0.70 in - 0% 26 mhos 2212 - None None - -
09/24/2017 17:55 Wet 51.1F - 48F 30F 5 7% 0.70 in - 0% 26 mhos 2225 - None None - -
09/24/2017 17:55 Wet 51.3F - 48F 30F 5 7% 0.70 in - 0% 26 mhos 2210 - None None - -
09/24/2017 17:45 Wet 52.2F - 48F 30F 5 7% 0.70 in - 0% 26 mhos 2185 - None None - -
09/24/2017 17:40 Wet 52.7F - 48F 30F 5 7% 0.70 in - 0% 26 mhos 2137 - None None - -
09/24/2017 17:35 Wet 54.7F - 48F 30F 5 7% 0.70 in - 0% 27 mhos 2187 - None None - -
09/24/2017 17:25 Wet 52.3F - 48F 30F 5 8% 0.70 in - 0% 27 mhos 2319 - None None - -
09/24/2017 17:25 Wet 52.2F - 48F 30F 5 8% 0.70 in - 0% 28 mhos 2336 - None None - -
09/24/2017 17:15 Wet 52.0F - 48F 30F 5 8% 0.70 in - 0% 29 mhos 2430 - None None - -
09/24/2017 17:10 Wet 52.0F - 48F 30F 5 8% 0.70 in - 0% 29 mhos 2457 - None None - -
09/24/2017 17:05 Wet 51.4F - 48F 30F 5 8% 0.70 in - 0% 29 mhos 2513 - None None - -
09/24/2017 16:55 Wet 51.6F - 48F 30F 5 8% 0.70 in - 0% 29 mhos 2467 - None None - -
Date/Time
(MDT)
Sf
Temp Chem Water Layer Surface Precipitation
Sfc Pvt Sub Frz Factor Pct Dpth DpthThk IcePct Cond Salin FI Type Intens Accum Rate
09/24/2017 16:55 Wet 51.8F - 48F 30F 5 8% 0.70 in - 0% 29 mhos 2448 - None None - -
09/24/2017 16:45 Wet 52.3F - 48F 30F 5 8% 0.70 in - 0% 28 mhos 2344 - None None - -
09/24/2017 16:40 Wet 52.5F - 48F 30F 5 8% 0.70 in - 0% 27 mhos 2303 - None None - -
09/24/2017 16:35 Wet 52.7F - 47F 30F 5 8% 0.70 in - 0% 27 mhos 2282 - None None - -
09/24/2017 16:25 Wet 53.8F - 47F 30F 5 7% 0.70 in - 0% 26 mhos 2152 - None None - -
09/24/2017 16:25 Wet 53.8F - 47F 30F 5 7% 0.70 in - 0% 26 mhos 2152 - None None - -
09/24/2017 16:15 Wet 54.0F - 47F 30F 5 7% 0.70 in - 0% 26 mhos 2106 - None None - -
09/24/2017 16:10 Wet 53.8F - 47F 30F 5 7% 0.70 in - 0% 25 mhos 2090 - None None - -
09/24/2017 16:05 Wet 53.8F - 47F 30F 5 7% 0.70 in - 0% 25 mhos 2050 - None None - -
09/24/2017 15:55 Wet 53.8F - 47F 30F 5 7% 0.70 in - 0% 25 mhos 2050 - None None - -
09/24/2017 15:55 Wet 53.8F - 47F 30F 5 7% 0.70 in - 0% 25 mhos 2050 - None None - -
09/24/2017 15:45 Wet 54.0F - 47F 30F 5 6% 0.70 in - 0% 23 mhos 1854 - None None - -
09/24/2017 15:40 Wet 54.1F - 47F 30F 5 6% 0.70 in - 0% 22 mhos 1760 - None None - -
09/24/2017 15:35 Wet 54.3F - 47F 31F 5 6% 0.70 in - 0% 21 mhos 1675 - None None - -
09/24/2017 15:25 Wet 54.7F - 47F 31F 5 5% 0.70 in - 0% 20 mhos 1625 - None None - -
Date/Time
(MDT)
Sf
Temp Chem Water Layer Surface Precipitation
Sfc Pvt Sub Frz Factor Pct Dpth DpthThk IcePct Cond Salin FI Type Intens Accum Rate
09/24/2017 15:25 Wet 54.9F - 47F 31F 5 5% 0.70 in - 0% 20 mhos 1628 - None None - -
09/24/2017 15:14 Wet 54.9F - 47F 31F 5 5% 0.70 in - 0% 19 mhos 1535 - None None - -
09/24/2017 15:10 Wet 55.0F - 47F 31F 5 5% 0.70 in - 0% 19 mhos 1495 - None None - -
09/24/2017 15:04 Wet 54.7F - 47F 31F 5 5% 0.70 in - 0% 18 mhos 1450 - None None - -
09/24/2017 14:55 Wet 54.5F - 47F 31F 5 5% 0.70 in - 0% 17 mhos 1378 - None None - -
09/24/2017 14:54 Wet 54.3F - 47F 31F 5 5% 0.70 in - 0% 17 mhos 1350 - None None - -
09/24/2017 14:44 Wet 54.5F - 47F 31F 5 4% 0.70 in - 0% 15 mhos 1185 - None None - -
09/24/2017 14:40 Wet 54.9F - 47F 31F 5 4% 0.70 in - 0% 14 mhos 1078 - None None - -
09/24/2017 14:34 Wet 54.9F - 47F 31F 5 3% 0.70 in - 0% 12 mhos 951 - None None - -
09/24/2017 14:25 Error 55.6F - 46F - - - - - - 9 mhos 705 - None None - -
09/24/2017 14:24 Error 55.8F - 46F - - - - - - 9 mhos 694 - None None - -
09/24/2017 14:14 Error 56.1F - 46F - - - - - - 7 mhos 556 - None None - -
09/24/2017 14:10 Wet 56.1F - 46F 32F 15 2% 0.20 in - 0% 7 mhos 516 - None None - -
09/24/2017 14:04 Trace Moisture 56.7F - 46F - 30 - - - - 6 mhos 462 - None None - -
09/24/2017 13:55 Trace Moisture 57.2F - 46F - 50 - - - - 6 mhos 424 - None None - -
Date/Time
(MDT)
Sf
Temp Chem Water Layer Surface Precipitation
Sfc Pvt Sub Frz Factor Pct Dpth DpthThk IcePct Cond Salin FI Type Intens Accum Rate
09/24/2017 13:54 Trace Moisture 57.4F - 46F - 50 - - - - 6 mhos 413 - None None - -
09/24/2017 13:44 Trace Moisture 58.3F - 46F - 60 - - - - 5 mhos 376 - None None - -
09/24/2017 13:40 Trace Moisture 58.6F - 46F - 70 - - - - 5 mhos 354 - None None - -
09/24/2017 13:34 Trace Moisture 58.6F - 46F - 65 - - - - 5 mhos 363 - None None - -
09/24/2017 13:25 Trace Moisture 58.1F - 46F - 65 - - - - 5 mhos 363 - None None - -
09/24/2017 13:24 Trace Moisture 58.3F - 46F - 65 - - - - 5 mhos 360 - None None - -
09/24/2017 13:14 Trace Moisture 58.6F - 46F - 70 - - - - 5 mhos 340 - None None - -
09/24/2017 13:10 Trace Moisture 58.8F - 46F - 70 - - - - 5 mhos 340 - None None - -
09/24/2017 13:04 Trace Moisture 59.0F - 46F - 60 - - - - 5 mhos 335 - None None - -
09/24/2017 12:55 Trace Moisture 59.9F - 46F - 70 - - - - 4 mhos 302 - None None - -
09/24/2017 12:54 Trace Moisture 59.9F - 46F - 75 - - - - 4 mhos 294 - None None - -
09/24/2017 12:44 Trace Moisture 61.3F - 46F - 75 - - - - 4 mhos 272 - None None - -
09/24/2017 12:40 Dry 62.6F - 46F - - - - - - 4 mhos 258 - None None - -
09/24/2017 12:34 Dry 65.8F - 46F - - - - - - 4 mhos 258 - None None - -
09/24/2017 12:25 Dry 61.0F - 46F - - - - - - 4 mhos 305 - None None - -
Date/Time
(MDT)
Sf
Temp Chem Water Layer Surface Precipitation
Sfc Pvt Sub Frz Factor Pct Dpth DpthThk IcePct Cond Salin FI Type Intens Accum Rate
09/24/2017 12:24 Dry 61.0F - 46F - - - - - - 4 mhos 311 - None None - -
09/24/2017 12:14 Dry 64.2F - 46F - - - - - - 6 mhos 429 - None None - -
09/24/2017 12:10 Dry 63.9F - 46F - - - - - - 7 mhos 519 - None None - -
09/24/2017 12:03 Dry 64.9F - 46F - - - - - - 10 mhos 672 - None None - -
09/24/2017 11:55 Wet 58.8F - 46F 31F 45 4% 0.10 in - 0% 16 mhos 1200 - None None - -
09/24/2017 11:53 Wet 58.6F - 46F 31F 40 4% 0.10 in - 0% 17 mhos 1276 - None None - -
09/24/2017 11:43 Wet 57.4F - 46F 31F 20 5% 0.10 in - 0% 21 mhos 1625 - None None - -
09/24/2017 11:40 Wet 56.7F - 46F 31F 15 6% 0.00 in - 0% 22 mhos 1697 - None None - -
09/24/2017 11:33 Wet 55.0F - 46F 30F 5 6% 0.70 in - 0% 22 mhos 1785 - None None - -
09/24/2017 11:25 Wet 56.1F - 46F 30F 5 7% 0.00 in - 0% 25 mhos 1994 - None None - -
09/24/2017 11:23 Wet 56.7F - 46F 30F 5 7% 0.00 in - 0% 26 mhos 2077 - None None - -
09/24/2017 11:13 Wet 56.3F - 46F 29F 5 8% 0.70 in - 0% 31 mhos 2536 - None None - -
09/24/2017 11:10 Wet 55.2F - 46F 29F 5 10% 0.70 in - 0% 36 mhos 3041 - None None - -
09/24/2017 11:03 Wet 54.5F - 46F 28F 5 14% 0.70 in - 0% 46 mhos 4070 - None None - -
09/24/2017 10:55 Wet 53.2F - 46F 23F 5 24% 0.70 in - 0% 70 mhos 7089 - None None - -
Date/Time
(MDT)
Sf
Temp Chem Water Layer Surface Precipitation
Sfc Pvt Sub Frz Factor Pct Dpth DpthThk IcePct Cond Salin FI Type Intens Accum Rate
09/24/2017 10:53 Wet 52.9F - 46F 22F 5 25% 0.70 in - 0% 73 mhos 7533 - None None - -
09/24/2017 10:43 Wet 50.7F - 46F 3F 5 50% 0.70 in - 0% 112 mhos 15000 - None None - -
09/24/2017 10:40 Wet 50.5F - 46F 3F 5 50% 0.70 in - 0% 139 mhos 15000 - None None - -
09/24/2017 10:33 Wet 47.5F - 46F 3F 5 50% 0.70 in - 0% 184 mhos 15000 - None None - -
09/24/2017 10:25 Wet 47.1F - 46F 3F 5 50% 0.70 in - 0% 271 mhos 15000 - None None - -
09/24/2017 10:23 Wet 46.2F - 46F 3F 5 50% 0.70 in - 0% 300 mhos 15000 - None None - -
09/24/2017 10:13 Wet 42.3F - 46F 3F 5 50% 0.70 in - 0% 380 mhos 15000 - None None - -
09/24/2017 10:10 Wet 41.5F - 46F 3F 5 50% 0.00 in - 0% 427 mhos 15000 - None None - -
09/24/2017 10:03 Wet 40.3F - 46F 3F 5 50% 0.00 in - 0% 499 mhos 15000 - None None - -
09/24/2017 09:55 Wet 38.7F - 46F 3F 5 50% 0.00 in - 0% 598 mhos 15000 - None None - -
09/24/2017 09:53 Wet 38.5F - 46F 3F 5 50% 0.00 in - 0% 598 mhos 15000 - None None - -
09/24/2017 09:43 Wet 37.4F - 46F 3F 10 50% 0.00 in - 0% 749 mhos 15000 - None None - -
09/24/2017 09:40 Wet 37.2F - 46F 3F 10 50% 0.00 in - 0% 857 mhos 15000 - None None - -
09/24/2017 09:33 Wet 36.1F - 46F 3F 25 50% 0.00 in - 0% 1001 mhos 15000 - None None - -
09/24/2017 09:25 Wet 34.9F - 46F 3F 35 50% 0.00 in - 0% 1199 mhos 15000 - None None - -
Date/Time
(MDT)
Sf
Temp Chem Water Layer Surface Precipitation
Sfc Pvt Sub Frz Factor Pct Dpth DpthThk IcePct Cond Salin FI Type Intens Accum Rate
09/24/2017 09:23 Wet 34.3F - 46F 3F 35 50% 0.00 in - 0% 1199 mhos 15000 - None None - -
09/24/2017 09:13 Wet 34.3F - 47F 3F 35 50% 0.00 in - 0% 1199 mhos 15000 - None None - -
09/24/2017 09:10 Wet 34.0F - 47F 3F 40 50% 0.00 in - 0% 1198 mhos 15000 - None None - -
09/24/2017 09:02 Wet 32.5F - 47F 3F 45 50% 0.00 in - 0% 1198 mhos 15000 - None None - -
09/24/2017 08:55 Chemically Wet 31.6F - 47F 3F 65 50% 0.00 in - 0% 1501 mhos 15000 - None None - -
09/24/2017 08:52 Chemically Wet 31.3F - 47F 3F 70 50% 0.00 in - 0% 1500 mhos 15000 - None None - -
09/24/2017 08:42 Chemically Wet 29.5F - 47F 3F 90 50% 0.00 in - 0% 1499 mhos 15000 - None None - -
09/24/2017 08:40 Chemically Wet 28.9F - 47F 3F 95 50% 0.00 in - 0% 1499 mhos 15000 - None None - -
09/24/2017 08:32 Chemically Wet 27.9F - 47F 3F 95 50% 0.00 in - 0% 1499 mhos 15000 - None None - -
09/24/2017 08:25 Chemically Wet 27.0F - 47F 3F 95 50% 0.00 in - 0% 1499 mhos 15000 - None None - -
09/24/2017 08:22 Chemically Wet 26.8F - 47F 3F 95 50% 0.00 in - 0% 1499 mhos 15000 - None None - -
09/24/2017 08:12 Chemically Wet 25.7F - 47F 3F 95 50% 0.00 in - 0% 1196 mhos 15000 - None None - -
09/24/2017 08:10 Chemically Wet 25.5F - 47F 3F 95 50% 0.00 in - 0% 1196 mhos 15000 - None None - -
09/24/2017 08:02 Chemically Wet 24.1F - 47F 3F 95 50% 0.00 in - 0% 1196 mhos 15000 - None None - -
09/24/2017 07:55 Chemically Wet 23.2F - 47F 3F 90 50% 0.00 in - 0% 1197 mhos 15000 - None None - -
Date/Time
(MDT)
Sf
Temp Chem Water Layer Surface Precipitation
Sfc Pvt Sub Frz Factor Pct Dpth DpthThk IcePct Cond Salin FI Type Intens Accum Rate
09/24/2017 07:52 Chemically Wet 23.0F - 47F 3F 90 50% 0.00 in - 0% 1197 mhos 15000 - None None - -
09/24/2017 07:42 Chemically Wet 22.5F - 47F 3F 90 50% 0.00 in - 0% 1197 mhos 15000 - None None - -
09/24/2017 07:40 Chemically Wet 22.3F - 47F 3F 90 50% 0.00 in - 0% 1197 mhos 15000 - None None - -
09/24/2017 07:32 Chemically Wet 22.1F - 47F 3F 90 50% 0.00 in - 0% 1197 mhos 15000 - None None - -
09/24/2017 07:25 Chemically Wet 22.3F - 47F 3F 90 50% 0.00 in - 0% 1197 mhos 15000 - None None - -
09/24/2017 07:22 Chemically Wet 22.3F - 47F 3F 90 50% 0.00 in - 0% 1197 mhos 15000 - None None - -
09/24/2017 07:12 Chemically Wet 22.3F - 47F 3F 95 50% 0.00 in - 0% 1196 mhos 15000 - None None - -
09/24/2017 07:10 Chemically Wet 22.5F - 47F 3F 95 50% 0.00 in - 0% 1196 mhos 15000 - None None - -
09/24/2017 07:02 Chemically Wet 22.6F - 47F 3F 95 50% 0.00 in - 0% 1196 mhos 15000 - None None - -
09/24/2017 06:55 Chemically Wet 22.8F - 47F 3F 95 50% 0.00 in - 0% 1196 mhos 15000 - None None - -
09/24/2017 06:52 Chemically Wet 23.0F - 47F 3F 95 50% 0.00 in - 0% 1196 mhos 15000 - None None - -
09/24/2017 06:42 Chemically Wet 23.2F - 47F 3F 95 50% 0.00 in - 0% 1196 mhos 15000 - None None - -
09/24/2017 06:40 Chemically Wet 23.2F - 47F 3F 95 50% 0.00 in - 0% 1196 mhos 15000 - None None - -
09/24/2017 06:32 Chemically Wet 23.4F - 47F 3F 95 50% 0.00 in - 0% 1195 mhos 15000 - None None - -
09/24/2017 06:25 Chemically Wet 23.4F - 47F 3F 95 50% 0.00 in - 0% 1195 mhos 15000 - None None - -
Date/Time
(MDT)
Sf
Temp Chem Water Layer Surface Precipitation
Sfc Pvt Sub Frz Factor Pct Dpth DpthThk IcePct Cond Salin FI Type Intens Accum Rate
09/24/2017 06:21 Chemically Wet 23.5F - 47F 3F 95 50% 0.00 in - 0% 1195 mhos 15000 - None None - -
09/24/2017 06:11 Chemically Wet 23.7F - 48F 3F 95 50% 0.00 in - 0% 1195 mhos 15000 - None None - -
09/24/2017 06:10 Chemically Wet 23.7F - 48F 3F 95 50% 0.00 in - 0% 1195 mhos 15000 - None None - -
09/24/2017 06:01 Chemically Wet 23.7F - 48F 3F 95 50% 0.00 in - 0% 1195 mhos 15000 - None None - -
09/24/2017 05:55 Chemically Wet 23.7F - 48F 3F 95 50% 0.00 in - 0% 1195 mhos 15000 - None None - -
09/24/2017 05:51 Chemically Wet 23.9F - 48F 3F 95 50% 0.00 in - 0% 1194 mhos 15000 - None None - -
09/24/2017 05:41 Chemically Wet 24.1F - 48F 3F 95 50% 0.00 in - 0% 1194 mhos 15000 - None None - -
09/24/2017 05:40 Chemically Wet 24.1F - 48F 3F 95 50% 0.00 in - 0% 1194 mhos 15000 - None None - -
09/24/2017 05:31 Chemically Wet 24.3F - 48F 3F 95 50% 0.00 in - 0% 1194 mhos 15000 - None None - -
09/24/2017 05:25 Chemically Wet 24.3F - 48F 3F 95 50% 0.00 in - 0% 1194 mhos 15000 - None None - -
09/24/2017 05:21 Chemically Wet 24.4F - 48F 3F 95 50% 0.00 in - 0% 1194 mhos 15000 - None None - -
09/24/2017 05:11 Chemically Wet 24.6F - 48F 3F 95 50% 0.00 in - 0% 1194 mhos 15000 - None None - -
09/24/2017 05:10 Chemically Wet 24.6F - 48F 3F 95 50% 0.00 in - 0% 1194 mhos 15000 - None None - -
09/24/2017 05:01 Chemically Wet 24.8F - 48F 3F 95 50% 0.00 in - 0% 1194 mhos 15000 - None None - -
09/24/2017 04:55 Chemically Wet 25.0F - 48F 3F 95 50% 0.00 in - 0% 1194 mhos 15000 - None None - -
Date/Time
(MDT)
Sf
Temp Chem Water Layer Surface Precipitation
Sfc Pvt Sub Frz Factor Pct Dpth DpthThk IcePct Cond Salin FI Type Intens Accum Rate
09/24/2017 04:51 Chemically Wet 25.2F - 48F 3F 95 50% 0.00 in - 0% 1194 mhos 15000 - None None - -
09/24/2017 04:41 Chemically Wet 25.2F - 48F 3F 95 50% 0.00 in - 0% 1194 mhos 15000 - None None - -
09/24/2017 04:40 Chemically Wet 25.3F - 48F 3F 95 50% 0.00 in - 0% 1194 mhos 15000 - None None - -
09/24/2017 04:31 Chemically Wet 25.3F - 48F 3F 95 50% 0.00 in - 0% 1194 mhos 15000 - None None - -
09/24/2017 04:25 Chemically Wet 25.5F - 48F 3F 95 50% 0.00 in - 0% 996 mhos 15000 - None None - -
09/24/2017 04:21 Chemically Wet 25.3F - 48F 3F 95 50% 0.00 in - 0% 996 mhos 15000 - None None - -
09/24/2017 04:11 Chemically Wet 25.3F - 48F 3F 95 50% 0.00 in - 0% 996 mhos 15000 - None None - -
09/24/2017 04:10 Chemically Wet 25.5F - 48F 3F 95 50% 0.00 in - 0% 996 mhos 15000 - None None - -
09/24/2017 04:01 Chemically Wet 25.7F - 48F 3F 95 50% 0.00 in - 0% 996 mhos 15000 - None None - -
09/24/2017 03:55 Chemically Wet 25.7F - 48F 3F 95 50% 0.00 in - 0% 852 mhos 15000 - None None - -
09/24/2017 03:51 Chemically Wet 25.7F - 48F 3F 95 50% 0.00 in - 0% 997 mhos 15000 - None None - -
09/24/2017 03:41 Chemically Wet 25.7F - 48F 3F 95 50% 0.00 in - 0% 852 mhos 15000 - None None - -
09/24/2017 03:40 Chemically Wet 25.7F - 48F 3F 95 50% 0.00 in - 0% 852 mhos 15000 - None None - -
Change End Date:

Copyright © 1998-2015 Vaisala, Inc.
All Rights Reserved
Send comments about the data to:
SCAN Web ® is a registered trademark of Vaisala, Inc.
SCAN Web Version 6.0